Crystal, New Mexico
Current Conditions -  °F | °C
As of 5:53 AM on Friday 19 Dec 2014 (Local Time) from KRQE Reporting Station
Clear Clear  
Wind Chill: 20°   Ceiling: Unl
Heat Index: 20°   Visibility: 10mi
Dew Point: 17°   Wind: 3mph
Humidity: 89%   Direction: 210°SSW
Pressure: 30.2"   Gusts: NA
Location:  35.8917°N, 108.926°W
Report Text: KRQE 191253Z AUTO 21003KT 10SM CLR M07/M08 A3020 RMK AO2 SLP230 T10671083 TSNO
Loading
Personal Weather Stations






























Interactive Weather Map New forecast layout! Learn more

10-Day Weather Forecast

Advertisements
Track Severe Weather on mobile